Time;durP1;ratioP1;P1;durP2;ratioP2;P2;SDS_P1;SDS_P2;PMS_P1;PMS_P2;Temp;Humidity;BMP_temperature;BMP_pressure;BME280_temperature;BME280_humidity;BME280_pressure;Samples;Min_cycle;Max_cycle;Signal;HPM_P1;HPM_P2
2022/07/30 00:04:19;;;;;;;12.55;9.13;;;;;;;13.86;91.61;101572.78;10390422;28;20044;-75
2022/07/30 00:09:20;;;;;;;12.40;8.63;;;;;;;13.94;90.41;101578.38;10387909;28;20099;-75
2022/07/30 00:14:21;;;;;;;11.13;8.88;;;;;;;13.94;89.75;101576.66;10389299;28;20053;-75
2022/07/30 00:19:21;;;;;;;14.13;8.27;;;;;;;13.92;89.92;101580.94;10352241;28;20034;-76
2022/07/30 00:24:22;;;;;;;11.88;8.45;;;;;;;14.05;89.57;101581.50;10365880;28;20069;-76
2022/07/30 00:29:22;;;;;;;10.88;7.80;;;;;;;13.99;89.78;101575.97;10369148;28;20051;-76
2022/07/30 00:34:23;;;;;;;15.05;10.10;;;;;;;14.02;90.52;101573.47;10354024;28;20053;-75
2022/07/30 00:39:23;;;;;;;11.65;8.27;;;;;;;14.06;90.19;101578.91;10385790;28;20490;-76
2022/07/30 00:44:24;;;;;;;13.10;9.85;;;;;;;14.04;90.07;101579.69;10388119;28;20088;-75
2022/07/30 00:49:24;;;;;;;10.80;9.18;;;;;;;13.95;90.69;101569.66;10348634;28;20042;-75
2022/07/30 00:54:25;;;;;;;32.25;12.20;;;;;;;13.84;91.14;101573.50;10347529;28;20045;-75
2022/07/30 00:59:28;;;;;;;16.55;8.02;;;;;;;13.74;91.86;101569.59;10402525;28;20071;-75
2022/07/30 01:04:29;;;;;;;14.05;8.48;;;;;;;13.66;92.22;101574.47;10349122;28;20092;-75
2022/07/30 01:09:30;;;;;;;17.02;9.90;;;;;;;13.59;92.85;101575.00;10384934;28;20128;-75
2022/07/30 01:14:30;;;;;;;13.32;8.15;;;;;;;13.53;93.27;101575.66;10404504;28;20402;-76
2022/07/30 01:19:47;;;;;;;11.70;8.82;;;;;;;13.50;93.73;101575.50;10347333;28;20125;-75
2022/07/30 01:24:54;;;;;;;12.40;8.10;;;;;;;13.37;94.04;101573.97;10335151;28;20041;-75
2022/07/30 01:29:55;;;;;;;12.25;8.25;;;;;;;13.27;94.76;101584.88;10387990;28;20053;-76
2022/07/30 01:34:56;;;;;;;15.43;8.88;;;;;;;13.20;95.17;101581.06;10366129;28;20052;-76
2022/07/30 01:39:56;;;;;;;14.63;10.15;;;;;;;13.19;95.62;101580.16;10327872;28;20084;-75
2022/07/30 01:44:57;;;;;;;15.23;8.80;;;;;;;13.16;95.82;101573.88;10331328;28;20384;-75
2022/07/30 01:49:58;;;;;;;14.50;9.70;;;;;;;13.03;95.93;101572.34;10368348;28;20046;-76
2022/07/30 01:54:58;;;;;;;15.80;10.30;;;;;;;12.93;97.73;101582.41;10349853;28;20560;-75
2022/07/30 02:00:01;;;;;;;13.48;10.65;;;;;;;12.82;98.05;101580.97;10327862;28;20129;-75
2022/07/30 02:05:02;;;;;;;25.20;11.85;;;;;;;12.71;98.51;101583.06;10346528;28;20042;-75
2022/07/30 02:10:04;;;;;;;15.20;12.07;;;;;;;12.59;98.92;101588.59;10367324;28;20087;-75
2022/07/30 02:15:37;;;;;;;15.00;11.68;;;;;;;12.51;100.00;101583.78;10349995;28;20508;-75
2022/07/30 02:20:38;;;;;;;22.02;15.25;;;;;;;12.48;100.00;101592.41;10339916;28;20050;-74
2022/07/30 02:25:42;;;;;;;16.83;13.05;;;;;;;12.47;100.00;101595.84;10329749;28;20070;-75
2022/07/30 02:30:46;;;;;;;21.05;14.98;;;;;;;12.42;100.00;101592.06;10327888;28;20121;-75
2022/07/30 02:35:46;;;;;;;26.92;16.10;;;;;;;12.40;100.00;101596.34;10335211;28;20447;-75
2022/07/30 02:40:47;;;;;;;22.65;14.27;;;;;;;12.30;100.00;101592.34;10368528;28;20051;-75
2022/07/30 02:45:47;;;;;;;22.40;15.02;;;;;;;12.27;100.00;101595.72;10359192;28;20043;-75
2022/07/30 02:50:49;;;;;;;18.13;13.32;;;;;;;12.20;100.00;101598.84;10311006;28;20054;-74
2022/07/30 02:55:50;;;;;;;22.48;13.45;;;;;;;12.05;100.00;101601.56;10322960;28;20034;-74
2022/07/30 03:00:52;;;;;;;22.38;15.00;;;;;;;11.99;100.00;101596.84;10368552;28;20045;-74
2022/07/30 03:05:52;;;;;;;20.83;14.98;;;;;;;11.96;100.00;101601.91;10353952;28;20084;-74
2022/07/30 03:10:54;;;;;;;21.83;16.75;;;;;;;11.96;100.00;101601.91;10326512;28;20128;-74
2022/07/30 03:15:56;;;;;;;28.90;19.40;;;;;;;12.06;100.00;101603.38;10335950;28;20394;-74
2022/07/30 03:20:56;;;;;;;24.67;19.90;;;;;;;12.11;100.00;101611.47;10382579;28;20044;-74
2022/07/30 03:26:00;;;;;;;25.20;20.85;;;;;;;12.24;100.00;101611.28;10367755;28;20056;-74
2022/07/30 03:31:00;;;;;;;29.10;23.25;;;;;;;12.43;100.00;101613.19;10341754;28;20069;-74
2022/07/30 03:36:01;;;;;;;39.17;24.60;;;;;;;12.68;100.00;101610.91;10338721;28;20034;-76
2022/07/30 03:41:03;;;;;;;33.55;23.85;;;;;;;12.91;100.00;101607.69;10365790;28;20124;-75
2022/07/30 03:46:03;;;;;;;31.90;23.77;;;;;;;13.08;100.00;101610.25;10369994;28;20042;-74
2022/07/30 03:51:05;;;;;;;44.47;26.33;;;;;;;13.26;100.00;101607.66;10342115;28;20030;-75
2022/07/30 03:56:06;;;;;;;35.55;24.30;;;;;;;13.41;100.00;101614.47;10339051;28;20064;-75
2022/07/30 04:01:06;;;;;;;36.97;24.30;;;;;;;13.54;100.00;101618.59;10366048;28;20045;-76
2022/07/30 04:06:07;;;;;;;31.77;23.55;;;;;;;13.64;100.00;101618.22;10366654;28;20042;-76
2022/07/30 04:11:07;;;;;;;35.10;23.42;;;;;;;13.74;100.00;101617.81;10380903;28;20088;-74
2022/07/30 04:16:18;;;;;;;45.00;26.65;;;;;;;13.80;100.00;101631.25;10384831;28;20034;-74
2022/07/30 04:21:19;;;;;;;39.42;24.98;;;;;;;13.75;100.00;101624.88;10341029;28;20054;-75
2022/07/30 04:26:22;;;;;;;43.35;27.60;;;;;;;13.63;100.00;101637.47;10357716;28;20144;-75
2022/07/30 04:31:23;;;;;;;43.67;26.73;;;;;;;13.39;100.00;101645.06;10365925;28;20049;-75
2022/07/30 04:36:24;;;;;;;45.35;29.02;;;;;;;13.26;100.00;101654.06;10365127;28;20041;-75
2022/07/30 04:41:24;;;;;;;47.08;27.70;;;;;;;13.13;100.00;101656.06;10370789;28;20781;-75
2022/07/30 04:46:25;;;;;;;42.03;27.83;;;;;;;13.05;100.00;101665.28;10352431;28;20092;-74
2022/07/30 04:51:28;;;;;;;44.55;30.10;;;;;;;13.10;100.00;101670.81;10403303;28;20033;-75
2022/07/30 04:56:29;;;;;;;38.88;29.55;;;;;;;13.16;100.00;101668.47;10351219;28;20502;-75
2022/07/30 05:01:33;;;;;;;45.42;30.77;;;;;;;13.25;100.00;101674.19;10347764;28;20037;-74
2022/07/30 05:06:34;;;;;;;41.38;29.08;;;;;;;13.43;100.00;101681.22;10364666;28;20121;-75
2022/07/30 05:11:34;;;;;;;38.08;28.38;;;;;;;13.56;100.00;101680.06;10329946;28;20394;-73
2022/07/30 05:16:35;;;;;;;44.67;30.17;;;;;;;13.64;100.00;101677.00;10356942;28;20422;-74
2022/07/30 05:21:35;;;;;;;43.78;27.35;;;;;;;13.79;100.00;101692.59;10386347;28;20082;-74
2022/07/30 05:26:36;;;;;;;36.22;27.17;;;;;;;14.10;100.00;101694.03;10384419;28;20121;-73
2022/07/30 05:31:37;;;;;;;47.20;26.77;;;;;;;14.34;100.00;101703.00;10367429;28;20033;-74
2022/07/30 05:36:38;;;;;;;33.55;23.80;;;;;;;14.96;100.00;101698.75;10379383;28;20037;-74
2022/07/30 05:41:38;;;;;;;26.27;20.35;;;;;;;15.79;97.55;101700.34;10399749;28;20120;-74
2022/07/30 05:46:39;;;;;;;24.40;18.85;;;;;;;16.33;91.97;101704.19;10371824;28;20057;-75
2022/07/30 05:51:40;;;;;;;28.45;17.25;;;;;;;16.69;88.17;101703.72;10326210;28;20039;-75
2022/07/30 05:56:40;;;;;;;24.70;17.60;;;;;;;17.23;85.20;101699.44;10390377;28;20040;-74
2022/07/30 06:01:41;;;;;;;26.58;19.13;;;;;;;17.56;83.63;101692.56;10402193;28;20502;-75
2022/07/30 06:06:41;;;;;;;27.73;18.20;;;;;;;18.23;80.29;101703.47;10334012;28;20037;-75
2022/07/30 06:11:42;;;;;;;25.00;18.30;;;;;;;18.84;77.29;101695.44;10327002;28;20108;-75
2022/07/30 06:16:42;;;;;;;27.25;16.90;;;;;;;19.60;75.97;101696.47;10373920;28;20042;-75
2022/07/30 06:21:43;;;;;;;22.73;18.13;;;;;;;19.88;70.46;101705.97;10371232;28;20066;-75
2022/07/30 06:26:43;;;;;;;18.50;14.87;;;;;;;18.97;75.16;101709.06;10383491;28;20497;-74
2022/07/30 06:31:44;;;;;;;20.90;14.88;;;;;;;18.68;75.55;101709.16;10384502;28;20037;-74
2022/07/30 06:36:44;;;;;;;22.52;16.40;;;;;;;19.21;74.93;101707.06;10383472;28;20574;-75
2022/07/30 06:41:45;;;;;;;20.00;13.82;;;;;;;19.95;72.26;101713.25;10384298;28;20037;-75
2022/07/30 06:46:45;;;;;;;22.03;15.23;;;;;;;20.00;70.97;101713.34;10383950;28;20455;-75
2022/07/30 06:51:46;;;;;;;17.35;13.07;;;;;;;19.53;73.68;101719.31;10368063;28;20037;-75
2022/07/30 06:56:46;;;;;;;16.50;11.93;;;;;;;19.26;73.69;101732.81;10396424;28;20041;-75
2022/07/30 07:01:48;;;;;;;18.40;13.02;;;;;;;19.10;74.20;101731.50;10383483;28;20816;-74
2022/07/30 07:06:48;;;;;;;18.03;14.47;;;;;;;19.40;73.10;101726.09;10367483;28;20034;-74
2022/07/30 07:11:49;;;;;;;19.85;12.68;;;;;;;19.32;73.84;101730.31;10399753;28;20545;-74
2022/07/30 07:16:49;;;;;;;19.30;13.60;;;;;;;19.69;72.37;101735.59;10383047;28;20034;-75
2022/07/30 07:21:50;;;;;;;20.95;13.98;;;;;;;19.63;72.09;101729.28;10400789;28;20041;-75
2022/07/30 07:26:50;;;;;;;16.60;13.73;;;;;;;19.44;72.62;101735.94;10381927;28;20040;-74
2022/07/30 07:31:51;;;;;;;15.32;12.43;;;;;;;19.81;70.02;101733.25;10365883;28;20047;-75
2022/07/30 07:36:51;;;;;;;17.00;13.82;;;;;;;20.31;66.95;101734.38;10366475;28;20065;-75
2022/07/30 07:41:52;;;;;;;17.83;14.13;;;;;;;19.45;70.17;101744.78;10400269;28;20121;-75
2022/07/30 07:46:52;;;;;;;23.33;16.83;;;;;;;21.53;64.17;101739.34;10382356;28;20029;-75
2022/07/30 07:51:53;;;;;;;18.87;14.83;;;;;;;25.01;53.79;101734.47;10398539;28;20172;-74
2022/07/30 07:56:56;;;;;;;15.73;11.13;;;;;;;24.33;53.70;101735.13;10399779;28;20393;-75
2022/07/30 08:01:56;;;;;;;11.80;10.60;;;;;;;25.54;50.30;101731.81;10399403;28;20553;-75
2022/07/30 08:06:57;;;;;;;13.27;10.93;;;;;;;24.28;52.96;101734.22;10380698;28;20042;-75
2022/07/30 08:11:59;;;;;;;14.63;11.00;;;;;;;25.63;49.03;101726.44;10399501;28;20098;-75
2022/07/30 08:16:59;;;;;;;13.88;9.82;;;;;;;26.47;46.39;101731.56;10373084;28;20029;-74
2022/07/30 08:22:00;;;;;;;10.93;7.73;;;;;;;27.10;44.67;101733.00;10389880;28;20436;-75
2022/07/30 08:27:00;;;;;;;12.87;8.47;;;;;;;28.48;40.94;101722.63;10406086;28;20033;-75
2022/07/30 08:32:01;;;;;;;13.40;8.63;;;;;;;28.91;41.48;101718.44;10407943;28;20053;-75
2022/07/30 08:37:01;;;;;;;;;;;;;;;29.37;39.33;101718.56;10368162;28;20033;-76
2022/07/30 08:42:02;;;;;;;10.73;7.40;;;;;;;28.27;40.91;101729.16;10365196;28;19929;-76
2022/07/30 08:47:03;;;;;;;9.75;6.65;;;;;;;28.63;39.33;101726.00;10331255;28;20053;-76
2022/07/30 08:52:04;;;;;;;11.00;7.07;;;;;;;27.67;43.57;101715.50;10331739;28;20121;-76
2022/07/30 08:57:04;;;;;;;9.68;5.80;;;;;;;28.64;38.98;101727.78;10346844;28;20687;-76
2022/07/30 09:02:05;;;;;;;8.40;5.70;;;;;;;28.83;39.17;101720.34;10322242;28;20054;-75
2022/07/30 09:07:05;;;;;;;6.55;4.40;;;;;;;29.51;36.98;101730.03;10322920;28;20054;-76
2022/07/30 09:12:31;;;;;;;8.63;5.30;;;;;;;28.34;39.05;101722.81;10323870;28;20066;-75
2022/07/30 09:17:52;;;;;;;9.00;5.35;;;;;;;27.50;38.89;101725.53;10323543;28;20602;-76
2022/07/30 09:22:54;;;;;;;8.60;5.40;;;;;;;28.67;36.71;101727.75;10307001;28;20053;-76
2022/07/30 09:27:55;;;;;;;9.88;4.78;;;;;;;28.53;38.07;101714.47;10321724;28;20038;-76
2022/07/30 09:32:56;;;;;;;8.30;4.05;;;;;;;28.77;37.91;101720.44;10325160;28;20121;-76
2022/07/30 09:37:57;;;;;;;8.40;4.53;;;;;;;29.85;34.38;101709.63;10362413;28;20029;-75
2022/07/30 09:43:08;;;;;;;8.63;4.40;;;;;;;30.34;34.96;101721.22;10360570;28;20046;-76
2022/07/30 09:48:19;;;;;;;7.13;4.10;;;;;;;29.96;37.15;101721.09;10345244;28;20069;-76
2022/07/30 09:53:23;;;;;;;8.15;3.42;;;;;;;30.01;37.46;101724.63;10345821;28;20487;-76
2022/07/30 09:58:24;;;;;;;8.65;3.50;;;;;;;29.70;35.98;101721.59;10345749;28;20042;-76
2022/07/30 10:03:24;;;;;;;8.00;3.78;;;;;;;29.25;36.26;101734.03;10346114;28;20042;-76
2022/07/30 10:08:41;;;;;;;5.05;3.17;;;;;;;30.72;32.31;101719.50;10344950;28;20038;-75
2022/07/30 10:13:42;;;;;;;5.03;2.30;;;;;;;30.77;32.37;101725.69;10361012;28;20490;-77
2022/07/30 10:18:42;;;;;;;8.90;2.90;;;;;;;31.03;31.91;101721.47;10361311;28;20120;-76
2022/07/30 10:23:46;;;;;;;8.30;3.40;;;;;;;30.71;33.07;101711.44;10346213;28;20125;-75
2022/07/30 10:28:46;;;;;;;8.25;3.65;;;;;;;31.20;31.49;101707.56;10304639;28;20662;-75
2022/07/30 10:33:47;;;;;;;6.90;2.75;;;;;;;31.47;33.38;101705.06;10318460;28;20166;-75
2022/07/30 10:38:47;;;;;;;6.70;2.37;;;;;;;31.53;32.65;101703.97;10287729;28;20486;-74
2022/07/30 10:44:03;;;;;;;6.25;3.22;;;;;;;32.41;30.95;101700.59;10304072;28;20270;-77
2022/07/30 10:49:08;;;;;;;6.43;2.90;;;;;;;32.57;30.38;101711.84;10320408;28;20046;-76
2022/07/30 10:54:34;;;;;;;6.15;3.28;;;;;;;31.63;30.98;101710.03;10317835;28;20039;-77
2022/07/30 10:59:54;;;;;;;9.32;3.75;;;;;;;32.20;31.72;101708.41;10323865;28;20052;-77
2022/07/30 11:05:16;;;;;;;6.15;3.25;;;;;;;32.53;30.48;101710.19;10342787;28;20493;-76
2022/07/30 11:10:35;;;;;;;4.75;3.03;;;;;;;31.54;31.79;101705.75;10359897;28;20077;-76
2022/07/30 11:15:58;;;;;;;6.90;2.92;;;;;;;31.03;33.14;101709.78;10341497;28;20037;-76
2022/07/30 11:21:18;;;;;;;7.70;3.03;;;;;;;31.39;31.69;101700.75;10343023;28;20081;-76
2022/07/30 11:26:37;;;;;;;4.50;3.63;;;;;;;32.36;31.83;101698.06;10325591;28;20121;-76
2022/07/30 11:31:38;;;;;;;4.32;2.80;;;;;;;32.84;31.26;101695.63;10398254;28;20057;-76
2022/07/30 11:37:05;;;;;;;5.65;2.55;;;;;;;32.29;30.71;101693.72;10382026;28;20037;-76
2022/07/30 11:42:30;;;;;;;9.20;3.33;;;;;;;30.81;33.75;101702.19;10400394;28;20045;-76
2022/07/30 11:47:31;;;;;;;6.03;2.75;;;;;;;30.03;34.79;101694.91;10400638;28;20038;-75
2022/07/30 11:52:31;;;;;;;5.47;2.57;;;;;;;31.53;31.07;101689.59;10358390;28;20034;-76
2022/07/30 11:57:41;;;;;;;7.78;5.28;;;;;;;31.73;33.00;101681.81;10390042;28;20099;-75
2022/07/30 12:02:42;;;;;;;6.78;2.58;;;;;;;31.95;31.10;101696.53;10367489;28;20038;-76
2022/07/30 12:07:42;;;;;;;8.83;2.70;;;;;;;31.80;31.06;101689.78;10367672;28;20065;-76
2022/07/30 12:12:43;;;;;;;5.07;3.00;;;;;;;31.66;31.25;101693.72;10365947;28;20305;-76
2022/07/30 12:17:44;;;;;;;4.85;2.38;;;;;;;31.35;32.05;101687.31;10365484;28;20042;-75
2022/07/30 12:22:44;;;;;;;8.95;4.03;;;;;;;31.46;32.44;101683.44;10349551;28;20038;-76
2022/07/30 12:27:49;;;;;;;7.40;3.30;;;;;;;31.33;32.63;101685.59;10365561;28;20037;-75
2022/07/30 12:32:51;;;;;;;8.82;2.85;;;;;;;31.33;32.99;101686.47;10365259;28;20053;-76
2022/07/30 12:38:03;;;;;;;6.18;2.78;;;;;;;31.87;32.53;101681.41;10350326;28;20045;-75
2022/07/30 12:43:03;;;;;;;12.95;4.40;;;;;;;32.23;32.34;101678.53;10317180;28;20030;-76
2022/07/30 12:48:08;;;;;;;6.47;3.13;;;;;;;31.63;30.84;101681.16;10353324;28;20030;-75
2022/07/30 12:53:09;;;;;;;6.65;2.53;;;;;;;31.21;32.24;101678.69;10340611;28;20034;-75
2022/07/30 12:58:09;;;;;;;12.00;4.87;;;;;;;29.76;35.05;101672.94;10317606;28;20038;-76
2022/07/30 13:03:23;;;;;;;9.57;3.60;;;;;;;27.92;37.80;101676.66;10381744;28;20100;-76
2022/07/30 13:08:55;;;;;;;8.32;3.38;;;;;;;27.72;39.74;101674.22;10358410;28;20128;-76
2022/07/30 13:13:55;;;;;;;4.80;2.53;;;;;;;28.47;36.98;101677.78;10367786;28;20042;-76
2022/07/30 13:18:56;;;;;;;7.10;2.53;;;;;;;28.88;38.04;101674.50;10380783;28;20493;-75
2022/07/30 13:23:56;;;;;;;4.27;2.70;;;;;;;29.49;35.63;101671.69;10358692;28;20076;-76
2022/07/30 13:28:57;;;;;;;3.70;2.33;;;;;;;29.83;32.37;101654.81;10364098;28;20060;-76
2022/07/30 13:33:58;;;;;;;6.43;2.80;;;;;;;29.89;36.95;101660.97;10378151;28;20029;-76
2022/07/30 13:38:58;;;;;;;3.80;1.93;;;;;;;30.98;31.71;101655.81;10400280;28;20505;-76
2022/07/30 13:43:59;;;;;;;7.13;2.00;;;;;;;31.44;31.62;101652.84;10345621;28;20133;-76
2022/07/30 13:48:59;;;;;;;5.80;2.47;;;;;;;31.90;29.37;101645.28;10360751;28;20095;-76
2022/07/30 13:54:00;;;;;;;4.63;1.97;;;;;;;32.07;30.55;101639.34;10374879;28;20111;-76
2022/07/30 13:59:00;;;;;;;7.75;1.92;;;;;;;32.45;29.62;101642.69;10363521;28;20125;-76
2022/07/30 14:04:01;;;;;;;5.05;3.08;;;;;;;32.12;28.59;101637.38;10361595;28;20069;-76
2022/07/30 14:09:02;;;;;;;3.83;2.03;;;;;;;31.93;30.49;101634.34;10377824;28;20038;-76
2022/07/30 14:14:03;;;;;;;5.22;2.47;;;;;;;32.15;29.85;101637.28;10364838;28;20046;-76
2022/07/30 14:19:04;;;;;;;6.32;1.98;;;;;;;31.73;31.12;101633.09;10380647;28;20489;-76
2022/07/30 14:24:05;;;;;;;3.20;1.63;;;;;;;31.48;31.76;101625.69;10380515;28;20037;-75
2022/07/30 14:29:06;;;;;;;6.80;1.88;;;;;;;31.68;29.86;101626.94;10384137;28;20119;-76
2022/07/30 14:34:06;;;;;;;13.10;2.70;;;;;;;31.58;29.64;101620.88;10362074;28;20600;-76
2022/07/30 14:39:07;;;;;;;3.55;1.88;;;;;;;31.82;30.36;101618.44;10386084;28;20052;-76
2022/07/30 14:44:11;;;;;;;4.75;2.00;;;;;;;31.86;29.81;101614.69;10347429;28;20038;-77
2022/07/30 14:49:11;;;;;;;5.20;2.25;;;;;;;31.63;30.68;101616.22;10371042;28;20045;-76
2022/07/30 14:54:12;;;;;;;6.40;2.05;;;;;;;31.07;31.38;101611.47;10350711;28;20397;-76
2022/07/30 14:59:12;;;;;;;7.47;3.40;;;;;;;30.42;31.96;101608.53;10374551;28;20046;-76
2022/07/30 15:04:13;;;;;;;4.93;2.88;;;;;;;29.45;34.67;101619.59;10382484;28;20292;-77
2022/07/30 15:09:14;;;;;;;4.15;2.25;;;;;;;28.71;36.43;101619.94;10374341;28;20038;-77
2022/07/30 15:14:14;;;;;;;4.50;2.50;;;;;;;27.82;36.85;101617.59;10398403;28;20076;-76
2022/07/30 15:19:15;;;;;;;7.43;3.00;;;;;;;27.24;38.58;101614.66;10344568;28;20393;-76
2022/07/30 15:24:16;;;;;;;6.60;3.20;;;;;;;26.85;41.39;101621.28;10368481;28;20026;-76
2022/07/30 15:29:16;;;;;;;5.23;2.97;;;;;;;26.84;40.84;101619.50;10379827;28;20042;-76
2022/07/30 15:34:17;;;;;;;4.33;2.50;;;;;;;27.57;37.70;101614.34;10370337;28;20065;-75
2022/07/30 15:39:18;;;;;;;4.50;2.90;;;;;;;27.65;38.74;101608.84;10358965;28;20477;-75
2022/07/30 15:44:18;;;;;;;10.87;2.40;;;;;;;27.02;40.65;101610.38;10368204;28;20571;-75
2022/07/30 15:49:19;;;;;;;4.47;2.90;;;;;;;26.51;41.01;101617.03;10362696;28;20041;-76
2022/07/30 15:54:21;;;;;;;5.03;2.90;;;;;;;26.12;42.67;101613.66;10366728;28;20125;-74
2022/07/30 15:59:22;;;;;;;9.13;3.10;;;;;;;26.24;43.06;101619.91;10365191;28;20042;-75
2022/07/30 16:04:23;;;;;;;7.30;3.33;;;;;;;26.73;40.37;101622.25;10381535;28;20449;-75
2022/07/30 16:09:23;;;;;;;5.73;3.53;;;;;;;27.22;40.56;101618.28;10364874;28;20041;-74
2022/07/30 16:14:24;;;;;;;6.80;3.10;;;;;;;27.39;39.71;101612.69;10371322;28;20104;-74
2022/07/30 16:19:25;;;;;;;4.70;2.33;;;;;;;26.86;38.56;101606.97;10324110;28;20037;-75
2022/07/30 16:24:25;;;;;;;3.83;2.30;;;;;;;26.14;41.54;101599.38;10348013;28;20037;-75
2022/07/30 16:29:26;;;;;;;7.67;3.20;;;;;;;25.34;42.00;101596.06;10349943;28;20352;-76
2022/07/30 16:34:26;;;;;;;7.60;2.80;;;;;;;25.15;45.23;101595.19;10352007;28;20642;-75
2022/07/30 16:39:27;;;;;;;5.17;2.97;;;;;;;24.82;47.28;101610.41;10364910;28;20113;-74
2022/07/30 16:44:30;;;;;;;4.32;2.42;;;;;;;24.62;47.69;101602.34;10373899;28;20045;-75
2022/07/30 16:49:31;;;;;;;4.82;2.60;;;;;;;24.40;49.34;101599.63;10364295;28;20050;-76
2022/07/30 16:54:31;;;;;;;22.63;4.63;;;;;;;24.12;53.54;101602.25;10378599;28;20064;-75
2022/07/30 16:59:32;;;;;;;7.57;4.10;;;;;;;23.83;50.89;101599.41;10396962;28;20044;-74
2022/07/30 17:04:34;;;;;;;8.77;5.00;;;;;;;23.86;49.91;101600.34;10365880;28;20042;-74
2022/07/30 17:09:34;;;;;;;;;;;;;;;24.00;49.42;101596.88;10364571;28;20052;-75
2022/07/30 17:14:34;;;;;;;;;;;;;;;24.25;47.51;101597.81;10398649;28;19944;-76
2022/07/30 17:19:35;;;;;;;;;;;;;;;24.48;46.90;101596.97;10405953;28;19964;-77
2022/07/30 17:24:35;;;;;;;;;;;;;;;24.37;48.25;101586.25;10400143;28;19990;-74
2022/07/30 17:29:36;;;;;;;;;;;;;;;24.04;51.39;101593.31;10399951;28;20357;-74
2022/07/30 17:34:37;;;;;;;;;;;;;;;23.71;52.25;101602.94;10385485;28;19925;-75
2022/07/30 17:39:37;;;;;;;;;;;;;;;23.61;49.29;101602.91;10367474;28;19929;-74
2022/07/30 17:44:43;;;;;;;;;;;;;;;23.39;58.36;101609.88;10402486;28;19929;-75
2022/07/30 17:49:43;;;;;;;;;;;;;;;23.06;58.41;101600.72;10397670;28;19916;-75
2022/07/30 17:54:44;;;;;;;;;;;;;;;22.90;59.08;101602.41;10401829;28;19927;-74
2022/07/30 17:59:44;;;;;;;;;;;;;;;22.85;61.92;101607.69;10391162;28;20384;-75
2022/07/30 18:04:44;;;;;;;;;;;;;;;22.65;60.49;101604.84;10386815;28;19921;-75
2022/07/30 18:09:45;;;;;;;;;;;;;;;22.44;62.89;101610.81;10402458;28;19921;-74
2022/07/30 18:14:45;;;;;;;;;;;;;;;22.32;63.00;101613.38;10390322;28;20125;-75
2022/07/30 18:19:46;;;;;;;;;;;;;;;22.21;60.87;101608.81;10362883;28;20419;-75
2022/07/30 18:24:48;;;;;;;;;;;;;;;22.11;64.44;101620.25;10361457;28;19999;-75
2022/07/30 18:29:48;;;;;;;;;;;;;;;21.87;63.13;101619.06;10362279;28;19928;-76
2022/07/30 18:34:49;;;;;;;;;;;;;;;21.71;68.01;101618.00;10362016;28;20002;-75
2022/07/30 18:39:49;;;;;;;;;;;;;;;21.52;68.78;101608.81;10361385;28;20021;-75
2022/07/30 18:44:49;;;;;;;;;;;;;;;21.30;65.03;101611.16;10362208;28;19923;-75
2022/07/30 18:49:50;;;;;;;;;;;;;;;21.13;63.92;101614.44;10361581;28;19917;-75
2022/07/30 18:54:51;;;;;;;;;;;;;;;21.00;65.27;101622.22;10343570;28;19918;-75
2022/07/30 18:59:51;;;;;;;;;;;;;;;20.86;68.06;101622.88;10360291;28;19925;-75
2022/07/30 19:04:52;;;;;;;;;;;;;;;20.73;75.29;101620.84;10343695;28;20344;-75
2022/07/30 19:09:54;;;;;;;;;;;;;;;20.51;73.24;101608.06;10360385;28;20365;-75
2022/07/30 19:14:54;;;;;;;;;;;;;;;20.35;71.62;101614.84;10360113;28;19918;-74
2022/07/30 19:19:55;;;;;;;;;;;;;;;20.22;71.32;101616.38;10341676;28;19935;-74
2022/07/30 19:24:55;;;;;;;;;;;;;;;20.21;73.28;101616.34;10343771;28;20455;-75
2022/07/30 19:29:55;;;;;;;;;;;;;;;20.08;74.88;101618.75;10326010;28;19930;-74
2022/07/30 19:34:56;;;;;;;;;;;;;;;20.00;71.43;101614.13;10360658;28;19926;-75
2022/07/30 19:39:56;;;;;;;;;;;;;;;19.91;71.05;101613.09;10343034;28;19921;-75
2022/07/30 19:44:57;;;;;;;;;;;;;;;19.85;72.16;101618.25;10358942;28;19921;-75
2022/07/30 19:49:59;;;;;;;;;;;;;;;19.81;73.63;101627.91;10359418;28;19956;-74
2022/07/30 19:54:59;;;;;;;;;;;;;;;19.65;74.04;101625.78;10358625;28;20281;-75
2022/07/30 19:59:59;;;;;;;;;;;;;;;19.62;73.52;101623.06;10360381;28;19921;-75
2022/07/30 20:05:01;;;;;;;;;;;;;;;19.51;73.77;101626.38;10358906;28;19921;-74
2022/07/30 20:10:02;;;;;;;;;;;;;;;19.44;77.60;101637.72;10363052;28;20429;-75
2022/07/30 20:15:02;;;;;;;;;;;;;;;19.34;74.13;101635.69;10368049;28;19969;-75
2022/07/30 20:20:03;;;;;;;;;;;;;;;19.25;75.28;101628.41;10366435;28;19917;-75
2022/07/30 20:25:04;;;;;;;;;;;;;;;19.17;73.76;101627.31;10367262;28;20344;-75
2022/07/30 20:30:05;;;;;;;;;;;;;;;19.08;75.97;101634.19;10349061;28;19955;-75
2022/07/30 20:35:06;;;;;;;;;;;;;;;18.97;75.95;101633.03;10349565;28;20337;-75
2022/07/30 20:40:07;;;;;;;;;;;;;;;18.86;75.46;101630.09;10348432;28;19983;-75
2022/07/30 20:45:08;;;;;;;;;;;;;;;18.79;76.36;101630.78;10365962;28;19925;-75
2022/07/30 20:50:09;;;;;;;;;;;;;;;18.71;76.42;101627.91;10366098;28;19948;-75
2022/07/30 20:55:12;;;;;;;;;;;;;;;18.63;77.21;101626.81;10348226;28;19926;-75
2022/07/30 21:00:15;;;;;;;;;;;;;;;18.56;77.87;101631.06;10348161;28;19925;-75
2022/07/30 21:05:18;;;;;;;;;;;;;;;18.60;78.69;101632.03;10366096;28;19965;-75
2022/07/30 21:10:18;;;;;;;;;;;;;;;18.61;77.51;101624.16;10365907;28;19918;-74
2022/07/30 21:15:19;;;;;;;;;;;;;;;18.57;78.74;101630.22;10347420;28;19921;-75
2022/07/30 21:20:19;;;;;;;;;;;;;;;18.53;80.81;101616.84;10364559;28;19925;-74
2022/07/30 21:25:20;;;;;;;;;;;;;;;18.44;79.56;101626.31;10347556;28;19927;-74
2022/07/30 21:30:20;;;;;;;;;;;;;;;18.42;78.83;101622.75;10346776;28;19921;-75
2022/07/30 21:35:20;;;;;;;;;;;;;;;18.43;77.65;101618.34;10363755;28;20373;-75
2022/07/30 21:40:21;;;;;;;;;;;;;;;18.39;77.96;101616.47;10364626;28;19928;-74
2022/07/30 21:45:21;;;;;;;;;;;;;;;18.39;77.44;101620.00;10363743;28;20423;-75
2022/07/30 21:50:22;;;;;;;;;;;;;;;18.31;77.21;101603.00;10346851;28;19924;-75
2022/07/30 21:55:22;;;;;;;;;;;;;;;18.19;77.72;101598.28;10363052;28;19918;-74
2022/07/30 22:00:43;;;;;;;;;;;;;;;18.02;79.47;101603.06;10363351;28;19967;-74
2022/07/30 22:05:43;;;;;;;;;;;;;;;17.84;81.79;101612.25;10346045;28;19922;-74
2022/07/30 22:10:44;;;;;;;;;;;;;;;17.80;82.61;101605.06;10328946;28;19924;-74
2022/07/30 22:15:44;;;;;;;;;;;;;;;17.89;84.10;101601.81;10362614;28;19921;-74
2022/07/30 22:20:45;;;;;;;;;;;;;;;17.92;83.45;101604.53;10362663;28;19917;-73
2022/07/30 22:25:45;;;;;;;;;;;;;;;17.96;81.49;101608.16;10363050;28;19925;-74
2022/07/30 22:30:45;;;;;;;;;;;;;;;17.96;80.60;101602.88;10343819;28;19921;-74
2022/07/30 22:35:46;;;;;;;;;;;;;;;17.92;81.19;101607.19;10362555;28;19971;-73
2022/07/30 22:40:46;;;;;;;;;;;;;;;17.93;81.00;101603.69;10361792;28;19924;-75
2022/07/30 22:45:47;;;;;;;;;;;;;;;17.89;81.29;101601.81;10361385;28;19925;-74
2022/07/30 22:50:47;;;;;;;;;;;;;;;17.81;82.55;101600.69;10371003;28;19921;-75
2022/07/30 22:55:47;;;;;;;;;;;;;;;17.72;84.12;101602.22;10402393;28;19917;-75
2022/07/30 23:00:48;;;;;;;;;;;;;;;17.71;84.44;101600.41;10402189;28;19921;-74
2022/07/30 23:05:48;;;;;;;;;;;;;;;17.71;84.65;101595.13;10401709;28;19928;-75
2022/07/30 23:10:48;;;;;;;;;;;;;;;17.72;84.89;101601.28;10401884;28;19971;-75
2022/07/30 23:15:49;;;;;;;;;;;;;;;17.67;83.36;101592.31;10400815;28;19925;-75
2022/07/30 23:20:49;;;;;;;;;;;;;;;17.61;84.10;101586.00;10401049;28;19936;-75
2022/07/30 23:25:49;;;;;;;;;;;;;;;17.59;86.14;101577.09;10384346;28;19967;-74
2022/07/30 23:30:50;;;;;;;;;;;;;;;17.58;86.43;101580.59;10400896;28;19921;-75
2022/07/30 23:35:50;;;;;;;;;;;;;;;17.53;86.24;101579.56;10366708;28;20341;-75